createdAt,value
2023-05-19T00:01:15.259Z,3.00
2023-05-19T00:03:54.542Z,3.20
2023-05-19T00:06:27.581Z,3.30
2023-05-19T00:09:00.924Z,2.20
2023-05-19T00:11:32.424Z,2.40
2023-05-19T00:14:04.359Z,3.20
2023-05-19T00:16:36.247Z,2.30
2023-05-19T00:19:10.378Z,2.60
2023-05-19T00:21:41.603Z,2.10
2023-05-19T00:24:13.353Z,4.00
2023-05-19T00:26:43.982Z,2.20
2023-05-19T00:29:18.683Z,2.90
2023-05-19T00:31:49.531Z,3.80
2023-05-19T00:34:20.365Z,1.90
2023-05-19T00:36:51.908Z,3.00
2023-05-19T00:39:22.669Z,4.00
2023-05-19T00:41:53.433Z,2.50
2023-05-19T00:44:24.264Z,2.40
2023-05-19T00:46:55.261Z,3.20
2023-05-19T00:49:26.131Z,2.00
2023-05-19T00:51:57.433Z,2.10
2023-05-19T00:54:28.370Z,2.30
2023-05-19T00:57:00.142Z,2.30
2023-05-19T00:59:30.869Z,2.80
2023-05-19T01:02:02.961Z,2.70
2023-05-19T01:04:35.110Z,2.10
2023-05-19T01:07:06.536Z,3.90
2023-05-19T01:09:37.509Z,2.60
2023-05-19T01:12:09.553Z,2.70
2023-05-19T01:14:40.866Z,3.10
2023-05-19T01:17:18.921Z,3.10
2023-05-19T01:20:02.221Z,2.50
2023-05-19T01:22:50.453Z,2.50
2023-05-19T01:25:42.641Z,2.20
2023-05-19T01:31:07.466Z,1.70
2023-05-19T01:33:39.249Z,1.40
2023-05-19T01:36:13.281Z,1.30
2023-05-19T01:38:45.543Z,2.50
2023-05-19T01:41:17.663Z,2.00
2023-05-19T01:43:49.998Z,3.00
2023-05-19T01:46:22.617Z,2.00
2023-05-19T01:48:56.126Z,2.30
2023-05-19T01:51:27.081Z,1.70
2023-05-19T01:53:58.568Z,3.70
2023-05-19T01:56:51.157Z,3.00
2023-05-19T01:59:37.999Z,1.90
2023-05-19T02:02:18.239Z,2.30
2023-05-19T02:04:56.930Z,1.60
2023-05-19T02:07:39.009Z,3.40
2023-05-19T02:10:16.877Z,2.40
2023-05-19T02:12:48.915Z,1.80
2023-05-19T02:15:22.647Z,1.50
2023-05-19T02:20:25.338Z,2.30
2023-05-19T02:22:56.378Z,1.70
2023-05-19T02:25:27.287Z,1.50
2023-05-19T02:27:59.017Z,1.80
2023-05-19T02:30:31.766Z,1.60
2023-05-19T02:33:03.045Z,1.30
2023-05-19T02:35:34.497Z,1.70
2023-05-19T02:38:05.440Z,1.50
2023-05-19T02:40:36.272Z,3.20
2023-05-19T02:43:08.122Z,1.90
2023-05-19T02:45:38.790Z,2.10
2023-05-19T02:48:09.637Z,1.70
2023-05-19T02:50:40.852Z,2.40
2023-05-19T02:53:11.731Z,1.70
2023-05-19T02:55:43.373Z,1.40
2023-05-19T02:58:14.038Z,2.10
2023-05-19T03:00:45.328Z,1.70
2023-05-19T03:03:16.235Z,1.90
2023-05-19T03:05:48.669Z,2.50
2023-05-19T03:08:19.853Z,2.30
2023-05-19T03:10:51.266Z,1.60
2023-05-19T03:13:22.344Z,2.20
2023-05-19T03:15:53.114Z,2.00
2023-05-19T03:18:24.850Z,2.70
2023-05-19T03:20:56.601Z,2.50
2023-05-19T03:23:28.160Z,2.90
2023-05-19T03:25:58.988Z,3.30
2023-05-19T03:28:29.816Z,3.00
2023-05-19T03:31:00.559Z,2.00
2023-05-19T03:33:31.556Z,1.60
2023-05-19T03:36:02.567Z,2.00
2023-05-19T03:38:33.297Z,1.20
2023-05-19T03:41:04.774Z,1.80
2023-05-19T03:43:35.844Z,1.70
2023-05-19T03:46:06.903Z,2.60
2023-05-19T03:48:37.771Z,2.90
2023-05-19T03:51:09.118Z,2.10
2023-05-19T03:53:41.295Z,2.60
2023-05-19T03:56:14.028Z,2.30
2023-05-19T03:58:47.106Z,2.10
2023-05-19T04:01:17.951Z,1.90
2023-05-19T04:03:48.750Z,1.90
2023-05-19T04:06:20.305Z,2.30
2023-05-19T04:08:51.452Z,2.10
2023-05-19T04:11:22.293Z,2.80
2023-05-19T04:13:53.334Z,8.70
2023-05-19T04:16:24.501Z,8.90
2023-05-19T04:18:55.454Z,6.60
2023-05-19T04:21:26.380Z,30.80
2023-05-19T04:23:59.267Z,43.60
2023-05-19T04:26:34.590Z,38.30
2023-05-19T04:29:05.672Z,30.90
2023-05-19T04:31:36.544Z,38.80
2023-05-19T04:34:08.209Z,36.00
2023-05-19T04:36:38.986Z,24.80
2023-05-19T04:39:12.283Z,27.90
2023-05-19T04:41:44.842Z,29.00
2023-05-19T04:44:18.573Z,27.00
2023-05-19T04:46:50.184Z,27.70
2023-05-19T04:49:21.168Z,26.80
2023-05-19T04:51:55.563Z,26.10
2023-05-19T04:54:27.247Z,17.20
2023-05-19T04:56:58.101Z,13.40
2023-05-19T04:59:28.863Z,15.10
2023-05-19T05:02:00.372Z,18.60
2023-05-19T05:04:31.074Z,17.60
2023-05-19T05:07:02.100Z,13.90
2023-05-19T05:09:33.005Z,18.80
2023-05-19T05:12:07.487Z,17.90
2023-05-19T05:14:40.409Z,15.00
2023-05-19T05:17:13.387Z,21.40
2023-05-19T05:19:45.547Z,14.20
2023-05-19T05:22:17.694Z,12.20
2023-05-19T05:24:49.423Z,11.60
2023-05-19T05:27:20.521Z,9.50
2023-05-19T05:29:51.732Z,10.60
2023-05-19T05:32:23.112Z,14.90
2023-05-19T05:34:54.392Z,15.00
2023-05-19T05:37:25.181Z,12.50
2023-05-19T05:39:56.298Z,13.50
2023-05-19T05:42:29.508Z,10.90
2023-05-19T05:45:00.668Z,10.70
2023-05-19T05:47:33.046Z,12.00
2023-05-19T05:50:05.473Z,9.60
2023-05-19T05:52:38.274Z,9.80
2023-05-19T05:55:12.055Z,10.50
2023-05-19T05:57:43.315Z,12.60
2023-05-19T06:00:16.585Z,6.00
2023-05-19T06:02:48.479Z,7.70
2023-05-19T06:05:19.547Z,7.90
2023-05-19T06:07:50.354Z,6.10
2023-05-19T06:10:21.467Z,12.10
2023-05-19T06:12:52.374Z,11.10
2023-05-19T06:15:24.667Z,9.10
2023-05-19T06:17:55.412Z,8.50
2023-05-19T06:20:26.351Z,8.80
2023-05-19T06:22:57.093Z,4.80
2023-05-19T06:25:28.241Z,7.60
2023-05-19T06:27:58.902Z,6.40
2023-05-19T06:30:29.682Z,5.20
2023-05-19T06:33:00.856Z,7.30
2023-05-19T06:35:32.640Z,5.30
2023-05-19T06:38:03.416Z,9.60
2023-05-19T06:40:34.322Z,7.00
2023-05-19T06:43:06.247Z,6.40
2023-05-19T06:45:37.413Z,8.20
2023-05-19T06:48:08.857Z,7.20
2023-05-19T06:50:39.830Z,6.80
2023-05-19T06:53:10.763Z,6.10
2023-05-19T06:55:54.296Z,5.60
2023-05-19T06:58:26.883Z,5.00
2023-05-19T07:00:57.886Z,6.10
2023-05-19T07:03:29.048Z,4.50
2023-05-19T07:06:00.704Z,4.10
2023-05-19T07:08:31.648Z,5.10
2023-05-19T07:11:02.880Z,7.10
2023-05-19T07:13:33.835Z,6.50
2023-05-19T07:16:04.875Z,4.90
2023-05-19T07:18:35.870Z,4.40
2023-05-19T07:21:07.472Z,6.00
2023-05-19T07:23:38.271Z,4.50
2023-05-19T07:26:09.293Z,4.90
2023-05-19T07:28:41.698Z,4.30
2023-05-19T07:31:12.795Z,3.70
2023-05-19T07:33:43.834Z,3.60
2023-05-19T07:36:14.733Z,5.50
2023-05-19T07:38:46.724Z,6.70
2023-05-19T07:41:17.716Z,3.60
2023-05-19T07:43:48.674Z,4.10
2023-05-19T07:46:19.578Z,3.90
2023-05-19T07:48:50.915Z,5.40
2023-05-19T07:51:21.894Z,2.90
2023-05-19T07:53:53.087Z,5.60
2023-05-19T07:56:25.002Z,4.90
2023-05-19T07:58:56.023Z,2.60
2023-05-19T08:01:27.156Z,4.40
2023-05-19T08:03:58.295Z,6.20
2023-05-19T08:06:30.136Z,5.50
2023-05-19T08:09:01.308Z,4.30
2023-05-19T08:11:32.054Z,4.50
2023-05-19T08:14:02.835Z,2.90
2023-05-19T08:16:33.849Z,5.00
2023-05-19T08:19:06.918Z,3.30
2023-05-19T08:21:38.594Z,3.10
2023-05-19T08:24:09.674Z,2.50
2023-05-19T08:26:40.582Z,3.80
2023-05-19T08:29:11.300Z,5.80
2023-05-19T08:31:42.245Z,2.20
2023-05-19T08:34:13.236Z,3.40
2023-05-19T08:36:45.377Z,2.00
2023-05-19T08:39:18.406Z,3.80
2023-05-19T08:41:49.339Z,3.00
2023-05-19T08:44:20.553Z,2.70
2023-05-19T08:46:53.434Z,1.40
2023-05-19T08:49:28.494Z,3.20
2023-05-19T08:52:07.333Z,3.60
2023-05-19T08:54:45.201Z,3.30
2023-05-19T08:57:16.564Z,4.00
2023-05-19T08:59:49.032Z,2.20
2023-05-19T09:02:21.064Z,3.50
2023-05-19T09:04:52.267Z,2.80
2023-05-19T09:07:25.645Z,2.00
2023-05-19T09:09:56.832Z,4.30
2023-05-19T09:12:27.836Z,2.50
2023-05-19T09:14:59.094Z,2.40
2023-05-19T09:17:30.264Z,3.10
2023-05-19T09:20:06.818Z,3.60
2023-05-19T09:22:41.752Z,2.80
2023-05-19T09:25:23.810Z,1.70
2023-05-19T09:27:56.934Z,2.80
2023-05-19T09:30:28.107Z,3.00
2023-05-19T09:32:59.193Z,2.70
2023-05-19T09:35:30.491Z,3.10
2023-05-19T09:38:01.964Z,1.70
2023-05-19T09:40:32.939Z,3.40
2023-05-19T09:43:09.253Z,1.90
2023-05-19T09:45:40.025Z,3.00
2023-05-19T09:48:11.334Z,2.50
2023-05-19T09:50:44.148Z,2.10
2023-05-19T09:53:18.667Z,3.00
2023-05-19T09:55:49.968Z,2.60
2023-05-19T09:58:21.850Z,3.20
2023-05-19T10:00:54.943Z,1.90
2023-05-19T10:03:26.716Z,2.60
2023-05-19T10:05:58.067Z,2.70
2023-05-19T10:08:30.733Z,3.70
2023-05-19T10:11:02.346Z,3.50
2023-05-19T10:13:36.613Z,3.30
2023-05-19T10:16:09.857Z,3.50
2023-05-19T10:18:41.149Z,3.60
2023-05-19T10:21:13.419Z,2.00
2023-05-19T10:23:44.287Z,1.90
2023-05-19T10:26:16.304Z,3.30
2023-05-19T10:28:47.730Z,2.30
2023-05-19T10:31:24.023Z,2.30
2023-05-19T10:34:15.895Z,2.10
2023-05-19T10:36:57.702Z,2.20
2023-05-19T10:39:35.568Z,2.20
2023-05-19T10:42:13.567Z,1.70
2023-05-19T10:45:01.609Z,2.90
2023-05-19T10:47:35.016Z,2.00
2023-05-19T10:50:08.613Z,2.80
2023-05-19T10:52:41.571Z,1.30
2023-05-19T10:55:15.810Z,3.00
2023-05-19T10:57:57.849Z,2.40
2023-05-19T11:00:32.549Z,3.10
2023-05-19T11:03:17.911Z,2.60
2023-05-19T11:05:51.078Z,1.70
2023-05-19T11:08:36.468Z,2.10
2023-05-19T11:11:18.193Z,2.60
2023-05-19T11:13:54.006Z,1.50
2023-05-19T11:16:32.798Z,3.00
2023-05-19T11:19:04.235Z,1.90
2023-05-19T11:21:52.371Z,2.40
2023-05-19T11:24:40.153Z,2.20
2023-05-19T11:27:26.315Z,3.20
2023-05-19T11:29:59.415Z,3.00
2023-05-19T11:32:33.712Z,1.40
2023-05-19T11:35:04.824Z,2.30
2023-05-19T11:37:36.940Z,2.30
2023-05-19T11:40:09.770Z,1.90
2023-05-19T11:42:40.983Z,1.10
2023-05-19T11:45:13.193Z,1.40
2023-05-19T11:48:01.106Z,2.10
2023-05-19T11:50:33.841Z,2.70
2023-05-19T11:53:04.864Z,1.80
2023-05-19T11:55:36.887Z,1.80
2023-05-19T11:58:07.852Z,1.70
2023-05-19T12:00:40.967Z,1.80
2023-05-19T12:03:12.572Z,2.40
2023-05-19T12:05:50.011Z,1.70
2023-05-19T12:08:21.757Z,1.80
2023-05-19T12:10:54.281Z,2.20
2023-05-19T12:13:26.455Z,2.00
2023-05-19T12:16:02.818Z,2.20
2023-05-19T12:18:37.935Z,2.00
2023-05-19T12:21:09.331Z,1.80
2023-05-19T12:23:41.648Z,1.80
2023-05-19T12:26:13.310Z,4.20
2023-05-19T12:28:46.298Z,1.60
2023-05-19T12:31:17.670Z,3.10
2023-05-19T12:33:52.167Z,1.80
2023-05-19T12:36:24.883Z,1.40
2023-05-19T12:38:58.454Z,2.20
2023-05-19T12:41:30.402Z,1.60
2023-05-19T12:44:14.455Z,2.00
2023-05-19T12:46:46.603Z,1.50
2023-05-19T12:49:17.787Z,1.40
2023-05-19T12:51:54.661Z,3.80
2023-05-19T12:54:26.337Z,1.70
2023-05-19T12:56:58.861Z,1.50
2023-05-19T12:59:38.281Z,1.20
2023-05-19T13:02:10.132Z,2.20
2023-05-19T13:04:41.006Z,1.20
2023-05-19T13:07:11.745Z,1.70
2023-05-19T13:09:42.911Z,1.90
2023-05-19T13:12:14.013Z,1.60
2023-05-19T13:14:45.943Z,1.70
2023-05-19T13:17:17.266Z,1.70
2023-05-19T13:19:49.211Z,1.50
2023-05-19T13:22:20.396Z,1.60
2023-05-19T13:24:53.342Z,1.60
2023-05-19T13:27:24.844Z,1.50
2023-05-19T13:29:55.994Z,1.50
2023-05-19T13:32:26.948Z,2.60
2023-05-19T13:34:57.971Z,2.60
2023-05-19T13:37:29.366Z,0.80
2023-05-19T13:40:00.343Z,1.80
2023-05-19T13:42:31.462Z,1.40
2023-05-19T13:45:02.434Z,1.10
2023-05-19T13:47:33.369Z,1.60
2023-05-19T13:50:05.888Z,1.40
2023-05-19T13:52:37.104Z,2.10
2023-05-19T13:55:09.801Z,1.60
2023-05-19T13:57:43.388Z,2.00
2023-05-19T14:00:17.728Z,2.10
2023-05-19T14:02:48.553Z,1.40
2023-05-19T14:05:19.830Z,1.60
2023-05-19T14:07:50.895Z,1.90
2023-05-19T14:10:21.875Z,1.20
2023-05-19T14:15:29.587Z,1.30
2023-05-19T14:18:00.417Z,1.90
2023-05-19T14:20:31.636Z,1.80
2023-05-19T14:23:03.176Z,1.90
2023-05-19T14:25:34.269Z,1.60
2023-05-19T14:28:05.523Z,1.50
2023-05-19T14:30:36.803Z,1.50
2023-05-19T14:33:07.935Z,1.40
2023-05-19T14:35:38.913Z,2.20
2023-05-19T14:38:10.076Z,1.60
2023-05-19T14:40:41.613Z,1.70
2023-05-19T14:43:12.738Z,1.90
2023-05-19T14:45:43.525Z,1.50
2023-05-19T14:48:14.352Z,1.70
2023-05-19T14:50:45.559Z,1.80
2023-05-19T14:53:16.600Z,1.70
2023-05-19T14:55:48.513Z,1.70
2023-05-19T14:58:27.641Z,1.70
2023-05-19T15:01:01.529Z,1.80
2023-05-19T15:03:32.720Z,1.60
2023-05-19T15:06:03.596Z,1.60
2023-05-19T15:08:34.478Z,1.40
2023-05-19T15:11:05.423Z,1.60
2023-05-19T15:13:36.162Z,1.50
2023-05-19T15:16:17.413Z,1.20
2023-05-19T15:18:48.958Z,1.30
2023-05-19T15:21:19.944Z,1.00
2023-05-19T15:23:50.889Z,1.40
2023-05-19T15:26:21.750Z,1.50
2023-05-19T15:28:53.397Z,1.00
2023-05-19T15:31:24.492Z,1.60
2023-05-19T15:33:55.293Z,1.50
2023-05-19T15:36:26.230Z,1.20
2023-05-19T15:38:57.163Z,1.60
2023-05-19T15:41:28.221Z,1.90
2023-05-19T15:44:00.308Z,1.40
2023-05-19T15:46:31.619Z,1.30
2023-05-19T15:49:02.422Z,1.60
2023-05-19T15:51:33.337Z,2.30
2023-05-19T15:54:04.256Z,1.60
2023-05-19T15:56:35.092Z,1.40
2023-05-19T15:59:06.143Z,2.00
2023-05-19T16:01:37.267Z,1.50
2023-05-19T16:04:08.284Z,1.40
2023-05-19T16:06:39.371Z,1.30
2023-05-19T16:09:10.453Z,1.30
2023-05-19T16:11:41.257Z,1.10
2023-05-19T16:14:11.976Z,1.30
2023-05-19T16:16:44.732Z,1.10
2023-05-19T16:19:15.731Z,1.40
2023-05-19T16:21:46.879Z,1.60
2023-05-19T16:24:17.716Z,1.80
2023-05-19T16:26:48.709Z,1.90
2023-05-19T16:29:19.636Z,1.50
2023-05-19T16:31:50.524Z,2.10
2023-05-19T16:34:21.314Z,1.30
2023-05-19T16:36:52.215Z,1.20
2023-05-19T16:39:23.197Z,1.50
2023-05-19T16:41:56.569Z,1.30
2023-05-19T16:44:27.629Z,1.60
2023-05-19T16:46:58.426Z,1.80
2023-05-19T16:49:29.172Z,1.70
2023-05-19T16:51:59.938Z,1.30
2023-05-19T16:54:31.389Z,1.40
2023-05-19T16:57:02.559Z,1.60
2023-05-19T16:59:33.431Z,1.80
2023-05-19T17:02:04.276Z,1.90
2023-05-19T17:04:35.359Z,1.90
2023-05-19T17:07:06.621Z,1.10
2023-05-19T17:09:37.801Z,1.30
2023-05-19T17:12:09.800Z,1.50
2023-05-19T17:14:42.556Z,1.70
2023-05-19T17:17:13.662Z,6.30
2023-05-19T17:19:44.925Z,37.70
2023-05-19T17:22:16.144Z,26.40
2023-05-19T17:24:47.438Z,37.80
2023-05-19T17:27:18.456Z,35.40
2023-05-19T17:29:49.480Z,34.20
2023-05-19T17:32:25.775Z,31.10
2023-05-19T17:34:57.305Z,27.00
2023-05-19T17:37:28.349Z,34.30
2023-05-19T17:39:59.537Z,26.80
2023-05-19T17:42:31.797Z,26.00
2023-05-19T17:45:04.444Z,26.80
2023-05-19T17:47:35.508Z,20.80
2023-05-19T17:50:07.745Z,17.80
2023-05-19T17:52:39.618Z,23.70
2023-05-19T17:55:13.923Z,25.80
2023-05-19T17:57:47.563Z,17.60
2023-05-19T18:00:20.212Z,15.30
2023-05-19T18:02:52.517Z,16.40
2023-05-19T18:05:25.163Z,16.80
2023-05-19T18:07:57.720Z,13.10
2023-05-19T18:10:29.804Z,19.40
2023-05-19T18:13:01.100Z,13.30
2023-05-19T18:15:32.074Z,18.20
2023-05-19T18:18:05.639Z,18.30
2023-05-19T18:20:38.033Z,14.30
2023-05-19T18:23:09.170Z,16.20
2023-05-19T18:25:40.520Z,13.80
2023-05-19T18:28:11.777Z,13.90
2023-05-19T18:30:43.905Z,16.70
2023-05-19T18:33:14.978Z,13.10
2023-05-19T18:35:47.475Z,13.20
2023-05-19T18:38:18.454Z,10.50
2023-05-19T18:40:49.447Z,13.90
2023-05-19T18:43:20.967Z,12.50
2023-05-19T18:45:52.077Z,11.50
2023-05-19T18:48:23.533Z,8.80
2023-05-19T18:50:54.743Z,12.20
2023-05-19T18:53:25.763Z,8.70
2023-05-19T18:55:56.704Z,11.00
2023-05-19T18:58:27.711Z,7.00
2023-05-19T19:00:59.277Z,12.20
2023-05-19T19:03:30.227Z,11.40
2023-05-19T19:06:02.250Z,9.30
2023-05-19T19:08:33.224Z,8.50
2023-05-19T19:11:05.366Z,11.60
2023-05-19T19:13:36.233Z,9.30
2023-05-19T19:16:08.425Z,8.20
2023-05-19T19:18:39.616Z,7.90
2023-05-19T19:21:11.289Z,8.50
2023-05-19T19:23:42.267Z,13.10
2023-05-19T19:26:13.209Z,8.70
2023-05-19T19:28:44.559Z,11.90
2023-05-19T19:31:15.572Z,8.40
2023-05-19T19:33:46.599Z,8.70
2023-05-19T19:36:17.656Z,7.50
2023-05-19T19:38:49.587Z,9.70
2023-05-19T19:41:21.397Z,9.10
2023-05-19T19:43:53.208Z,6.80
2023-05-19T19:46:24.185Z,6.00
2023-05-19T19:48:57.411Z,6.10
2023-05-19T19:51:28.766Z,6.90
2023-05-19T19:53:59.623Z,6.10
2023-05-19T19:56:30.422Z,8.00
2023-05-19T19:59:01.603Z,5.40
2023-05-19T20:01:33.763Z,7.20
2023-05-19T20:04:04.851Z,7.00
2023-05-19T20:06:37.277Z,8.10
2023-05-19T20:09:08.644Z,4.90
2023-05-19T20:11:39.766Z,6.80
2023-05-19T20:14:11.138Z,8.10
2023-05-19T20:16:42.314Z,6.80
2023-05-19T20:19:13.445Z,8.00
2023-05-19T20:21:44.886Z,5.60
2023-05-19T20:24:15.607Z,6.50
2023-05-19T20:26:46.613Z,7.20
2023-05-19T20:29:17.591Z,6.80
2023-05-19T20:31:48.448Z,4.80
2023-05-19T20:34:19.426Z,4.50
2023-05-19T20:36:50.360Z,5.00
2023-05-19T20:39:21.207Z,4.80
2023-05-19T20:41:51.903Z,6.50
2023-05-19T20:44:22.848Z,5.50
2023-05-19T20:46:55.520Z,5.60
2023-05-19T20:49:26.381Z,5.40
2023-05-19T20:51:57.984Z,5.00
2023-05-19T20:54:28.984Z,5.60
2023-05-19T20:56:59.704Z,6.70
2023-05-19T20:59:30.856Z,4.10
2023-05-19T21:02:02.357Z,3.70
2023-05-19T21:04:33.225Z,5.50
2023-05-19T21:07:04.068Z,5.00
2023-05-19T21:09:34.857Z,7.40
2023-05-19T21:12:06.284Z,4.90
2023-05-19T21:14:37.051Z,3.80
2023-05-19T21:17:08.426Z,6.20
2023-05-19T21:19:40.572Z,5.30
2023-05-19T21:22:11.505Z,4.90
2023-05-19T21:24:42.211Z,5.00
2023-05-19T21:27:13.173Z,3.70
2023-05-19T21:29:43.921Z,5.00
2023-05-19T21:32:14.706Z,4.70
2023-05-19T21:34:46.452Z,4.90
2023-05-19T21:37:17.810Z,3.00
2023-05-19T21:39:49.239Z,5.40
2023-05-19T21:42:20.061Z,3.50
2023-05-19T21:44:50.864Z,4.20
2023-05-19T21:47:21.658Z,3.50
2023-05-19T21:49:52.428Z,4.00
2023-05-19T21:52:23.339Z,6.70
2023-05-19T21:54:54.060Z,8.00
2023-05-19T21:57:24.789Z,4.70
2023-05-19T21:59:55.756Z,5.80
2023-05-19T22:02:26.794Z,7.90
2023-05-19T22:04:58.163Z,5.90
2023-05-19T22:07:29.105Z,4.60
2023-05-19T22:10:00.163Z,4.70
2023-05-19T22:12:31.874Z,4.70
2023-05-19T22:15:03.674Z,3.30
2023-05-19T22:17:34.423Z,5.90
2023-05-19T22:20:05.733Z,4.50
2023-05-19T22:22:36.587Z,3.90
2023-05-19T22:25:09.197Z,5.20
2023-05-19T22:27:39.988Z,4.00
2023-05-19T22:30:12.242Z,4.40
2023-05-19T22:32:43.006Z,4.30
2023-05-19T22:35:13.799Z,3.40
2023-05-19T22:37:44.824Z,5.30
2023-05-19T22:40:16.425Z,6.00
2023-05-19T22:42:47.174Z,4.30
2023-05-19T22:45:18.251Z,4.80
2023-05-19T22:47:49.065Z,4.20
2023-05-19T22:50:20.150Z,5.20
2023-05-19T22:52:51.032Z,4.50
2023-05-19T22:55:22.237Z,6.30
2023-05-19T22:57:53.144Z,4.40
2023-05-19T23:00:24.428Z,3.90
2023-05-19T23:02:55.335Z,4.60
2023-05-19T23:05:26.332Z,3.80
2023-05-19T23:07:57.127Z,5.00
2023-05-19T23:10:27.941Z,4.40
2023-05-19T23:12:58.545Z,3.40
2023-05-19T23:15:29.294Z,5.70
2023-05-19T23:18:01.399Z,3.80
2023-05-19T23:20:34.216Z,3.90
2023-05-19T23:23:05.030Z,3.20
2023-05-19T23:25:35.924Z,4.70
2023-05-19T23:28:10.236Z,4.80
2023-05-19T23:30:41.330Z,4.70
2023-05-19T23:33:12.258Z,4.30
2023-05-19T23:35:43.676Z,4.40
2023-05-19T23:38:14.825Z,3.90
2023-05-19T23:40:45.700Z,4.30
2023-05-19T23:43:16.429Z,3.20
2023-05-19T23:45:47.146Z,3.10
2023-05-19T23:48:17.853Z,4.30
2023-05-19T23:50:48.918Z,3.90
2023-05-19T23:53:20.082Z,3.80
2023-05-19T23:55:51.458Z,5.70
2023-05-19T23:58:23.525Z,3.80
